Schneifelwetter: Wetterstation Hallschlag, 537 m . NN
Wetterdaten: Mittwoch, 28.11.2012
Datum Zeit Temp. A. Feuchte A. Luftdruck Regen Wind Richtung Richtung Sonnenschein T Regen Taupunkt Windchill
28.11.2012 00:00 0,9 C 96 % 1004 hPa 0,0 l/m 0,0 km/h (0 Bft) SW 215 0 min 0 min 0,3 C 0,9 C
28.11.2012 00:15 0,9 C 96 % 1004 hPa 0,0 l/m 0,0 km/h (0 Bft) SW 215 0 min 0 min 0,3 C 0,9 C
28.11.2012 00:30 0,6 C 96 % 1004 hPa 0,0 l/m 0,0 km/h (0 Bft) SW 215 0 min 0 min 0,0 C 0,6 C
28.11.2012 00:45 0,4 C 96 % 1003 hPa 0,0 l/m 3,0 km/h (1 Bft) SW 215 0 min 0 min -0,2 C 0,4 C
28.11.2012 01:00 0,3 C 96 % 1004 hPa 0,0 l/m 0,0 km/h (0 Bft) SW 215 0 min 0 min -0,3 C 0,3 C
28.11.2012 01:15 0,3 C 96 % 1003 hPa 0,0 l/m 0,0 km/h (0 Bft) SW 215 0 min 0 min -0,3 C 0,3 C
28.11.2012 01:30 0,4 C 97 % 1003 hPa 0,0 l/m 0,0 km/h (0 Bft) SW 215 0 min 0 min -0,0 C 0,4 C
28.11.2012 01:45 0,5 C 97 % 1003 hPa 0,0 l/m 0,0 km/h (0 Bft) SW 215 0 min 0 min 0,1 C 0,5 C
28.11.2012 02:00 0,5 C 97 % 1003 hPa 0,0 l/m 0,0 km/h (0 Bft) SW 215 0 min 0 min 0,1 C 0,5 C
28.11.2012 02:15 0,4 C 97 % 1003 hPa 0,0 l/m 0,0 km/h (0 Bft) SW 215 0 min 0 min -0,0 C 0,4 C
28.11.2012 02:30 0,3 C 97 % 1003 hPa 0,0 l/m 0,0 km/h (0 Bft) SW 215 0 min 0 min -0,1 C 0,3 C
28.11.2012 02:45 0,2 C 97 % 1003 hPa 0,0 l/m 0,0 km/h (0 Bft) SW 215 0 min 0 min -0,2 C 0,2 C
28.11.2012 03:00 0,0 C 97 % 1003 hPa 0,0 l/m 0,0 km/h (0 Bft) SW 215 0 min 0 min -0,4 C 0,0 C
28.11.2012 03:15 -0,2 C 97 % 1003 hPa 0,0 l/m 0,0 km/h (0 Bft) SW 215 0 min 0 min -0,6 C -0,2 C
28.11.2012 03:30 -0,2 C 97 % 1003 hPa 0,0 l/m 0,0 km/h (0 Bft) SW 215 0 min 0 min -0,6 C -0,2 C
28.11.2012 03:45 -0,2 C 97 % 1003 hPa 0,0 l/m 0,0 km/h (0 Bft) SW 215 0 min 0 min -0,6 C -0,2 C
28.11.2012 04:00 -0,3 C 97 % 1003 hPa 0,0 l/m 0,0 km/h (0 Bft) SW 215 0 min 0 min -0,7 C -0,3 C
28.11.2012 04:15 -0,3 C 97 % 1003 hPa 0,0 l/m 0,0 km/h (0 Bft) SW 215 0 min 0 min -0,7 C -0,3 C
28.11.2012 04:30 -0,3 C 98 % 1004 hPa 0,0 l/m 0,0 km/h (0 Bft) SW 215 0 min 0 min -0,6 C -0,3 C
28.11.2012 04:45 -0,2 C 98 % 1004 hPa 0,0 l/m 0,0 km/h (0 Bft) SW 215 0 min 0 min -0,5 C -0,2 C
28.11.2012 05:00 -0,2 C 98 % 1003 hPa 0,0 l/m 0,0 km/h (0 Bft) SW 215 0 min 0 min -0,5 C -0,2 C
28.11.2012 05:15 -0,2 C 98 % 1003 hPa 0,0 l/m 0,0 km/h (0 Bft) SW 215 0 min 0 min -0,5 C -0,2 C
28.11.2012 05:30 0,0 C 98 % 1003 hPa 0,0 l/m 0,0 km/h (0 Bft) SW 215 0 min 0 min -0,3 C 0,0 C
28.11.2012 05:46 0,1 C 98 % 1003 hPa 0,0 l/m 0,0 km/h (0 Bft) SW 215 0 min 0 min -0,2 C 0,1 C
28.11.2012 06:01 0,1 C 98 % 1003 hPa 0,0 l/m 0,0 km/h (0 Bft) SW 215 0 min 0 min -0,2 C 0,1 C
28.11.2012 06:16 0,1 C 98 % 1003 hPa 0,0 l/m 0,0 km/h (0 Bft) SW 215 0 min 0 min -0,2 C 0,1 C
28.11.2012 06:31 0,1 C 98 % 1003 hPa 0,0 l/m 0,0 km/h (0 Bft) SW 215 0 min 0 min -0,2 C 0,1 C
28.11.2012 06:46 0,1 C 98 % 1003 hPa 0,0 l/m 0,0 km/h (0 Bft) SW 215 0 min 0 min -0,2 C 0,1 C
28.11.2012 07:01 0,1 C 98 % 1003 hPa 0,0 l/m 0,0 km/h (0 Bft) SW 215 0 min 0 min -0,2 C 0,1 C
28.11.2012 07:16 0,1 C 98 % 1003 hPa 0,0 l/m 0,0 km/h (0 Bft) SW 215 0 min 0 min -0,2 C 0,1 C
28.11.2012 07:31 0,2 C 98 % 1003 hPa 0,0 l/m 0,0 km/h (0 Bft) SW 215 0 min 0 min -0,1 C 0,2 C
28.11.2012 07:46 0,3 C 98 % 1003 hPa 0,0 l/m 0,0 km/h (0 Bft) SW 215 0 min 0 min 0,0 C 0,3 C
28.11.2012 08:00 0,4 C 98 % 1003 hPa 0,0 l/m 0,0 km/h (0 Bft) SW 215 0 min 0 min 0,1 C 0,4 C
28.11.2012 08:15 0,5 C 98 % 1003 hPa 0,0 l/m 0,0 km/h (0 Bft) SW 215 0 min 0 min 0,2 C 0,5 C
28.11.2012 08:30 0,7 C 98 % 1003 hPa 0,0 l/m 0,0 km/h (0 Bft) SW 215 0 min 0 min 0,4 C 0,7 C
28.11.2012 08:46 0,9 C 98 % 1003 hPa 0,0 l/m 0,0 km/h (0 Bft) SW 215 0 min 0 min 0,6 C 0,9 C
28.11.2012 09:01 1,2 C 98 % 1003 hPa 0,0 l/m 5,3 km/h (1 Bft) N-NW22.5 345 0 min 0 min 0,9 C 1,2 C
28.11.2012 09:16 1,4 C 98 % 1003 hPa 0,0 l/m 10,0 km/h (2 Bft) N22.5 10 0 min 0 min 1,1 C -1,9 C
28.11.2012 09:30 1,9 C 99 % 1003 hPa 0,0 l/m 10,0 km/h (2 Bft) N22.5 10 0 min 0 min 1,8 C -1,4 C
28.11.2012 09:45 2,2 C 98 % 1003 hPa 0,0 l/m 9,6 km/h (2 Bft) N22.5 10 0 min 0 min 1,9 C -0,7 C
28.11.2012 10:00 2,4 C 98 % 1003 hPa 0,0 l/m 9,6 km/h (2 Bft) N22.5 10 0 min 0 min 2,1 C -0,5 C
28.11.2012 10:16 2,7 C 98 % 1003 hPa 0,0 l/m 11,7 km/h (2 Bft) N22.5 10 0 min 0 min 2,4 C -1,7 C
28.11.2012 10:31 3,0 C 98 % 1004 hPa 0,0 l/m 13,3 km/h (3 Bft) N-NO45 30 0 min 0 min 2,7 C -2,4 C
28.11.2012 10:46 3,8 C 98 % 1004 hPa 0,0 l/m 13,8 km/h (3 Bft) N-NO22.5 30 0 min 0 min 3,5 C -1,7 C
28.11.2012 11:00 3,9 C 96 % 1003 hPa 0,0 l/m 14,4 km/h (3 Bft) N-NO22.5 15 0 min 0 min 3,3 C -1,9 C
28.11.2012 11:15 3,7 C 94 % 1003 hPa 0,0 l/m 18,1 km/h (3 Bft) N-NO22.5 20 0 min 0 min 2,8 C -4,0 C
28.11.2012 11:30 3,7 C 91 % 1003 hPa 0,0 l/m 18,1 km/h (3 Bft) N67.5 360 0 min 0 min 2,4 C -4,0 C
28.11.2012 11:46 3,6 C 91 % 1003 hPa 0,0 l/m 20,8 km/h (4 Bft) N45 5 0 min 0 min 2,3 C -5,3 C
28.11.2012 12:01 3,3 C 90 % 1003 hPa 0,0 l/m 20,5 km/h (4 Bft) N-NO45 25 0 min 0 min 1,8 C -5,6 C
28.11.2012 12:16 3,3 C 91 % 1003 hPa 0,0 l/m 14,5 km/h (3 Bft) N-NO45 15 0 min 0 min 2,0 C -2,7 C
28.11.2012 12:30 3,3 C 91 % 1003 hPa 0,0 l/m 18,0 km/h (3 Bft) N22.5 10 0 min 0 min 2,0 C -4,5 C
28.11.2012 12:45 3,2 C 91 % 1003 hPa 0,0 l/m 10,5 km/h (2 Bft) N-NO22.5 15 0 min 0 min 1,9 C -0,3 C
28.11.2012 13:00 3,0 C 91 % 1003 hPa 0,0 l/m 16,9 km/h (3 Bft) N-NO45 25 0 min 0 min 1,7 C -4,3 C
28.11.2012 13:16 2,9 C 92 % 1003 hPa 0,0 l/m 10,6 km/h (2 Bft) N45 5 0 min 0 min 1,7 C -0,7 C
28.11.2012 13:31 2,9 C 92 % 1002 hPa 0,0 l/m 10,6 km/h (2 Bft) N45 5 0 min 0 min 1,7 C -0,7 C
28.11.2012 13:45 3,0 C 92 % 1002 hPa 0,0 l/m 13,7 km/h (3 Bft) N22.5 5 0 min 0 min 1,8 C -2,6 C
28.11.2012 14:00 3,0 C 92 % 1002 hPa 0,0 l/m 15,5 km/h (3 Bft) N-NO67.5 20 0 min 0 min 1,8 C -3,6 C
28.11.2012 14:15 3,1 C 92 % 1002 hPa 0,0 l/m 21,0 km/h (4 Bft) N22.5 10 0 min 0 min 1,9 C -6,0 C
28.11.2012 14:31 3,1 C 93 % 1002 hPa 0,0 l/m 25,9 km/h (4 Bft) N-NO22.5 15 0 min 0 min 2,1 C -7,8 C
28.11.2012 14:46 3,1 C 93 % 1002 hPa 0,0 l/m 19,5 km/h (3 Bft) N-NO67.5 15 0 min 0 min 2,1 C -5,4 C
28.11.2012 15:01 3,1 C 93 % 1002 hPa 0,0 l/m 17,6 km/h (3 Bft) N-NO45 15 0 min 0 min 2,1 C -4,6 C
28.11.2012 15:15 3,1 C 93 % 1002 hPa 0,0 l/m 21,5 km/h (4 Bft) N-NO67.5 25 0 min 0 min 2,1 C -6,2 C
28.11.2012 15:30 3,0 C 93 % 1002 hPa 0,0 l/m 21,5 km/h (4 Bft) N-NO67.5 20 0 min 0 min 2,0 C -6,4 C
28.11.2012 15:45 2,9 C 94 % 1002 hPa 0,0 l/m 24,3 km/h (4 Bft) N-NO67.5 20 0 min 0 min 2,0 C -7,5 C
28.11.2012 16:01 2,7 C 94 % 1002 hPa 0,0 l/m 23,9 km/h (4 Bft) N-NO45 15 0 min 0 min 1,8 C -7,7 C
28.11.2012 16:16 2,5 C 95 % 1002 hPa 0,0 l/m 19,6 km/h (3 Bft) N67.5 360 0 min 0 min 1,8 C -6,2 C
28.11.2012 16:31 2,3 C 96 % 1002 hPa 0,0 l/m 21,1 km/h (4 Bft) N-NO45 15 0 min 0 min 1,7 C -7,1 C
28.11.2012 16:45 2,2 C 96 % 1002 hPa 0,0 l/m 21,5 km/h (4 Bft) N45 10 0 min 0 min 1,6 C -7,4 C
28.11.2012 17:00 2,1 C 96 % 1002 hPa 0,3 l/m 15,8 km/h (3 Bft) N22.5 10 0 min 15 min 1,5 C -4,9 C
28.11.2012 17:15 2,0 C 97 % 1002 hPa 0,0 l/m 20,6 km/h (4 Bft) N22.5 5 0 min 0 min 1,6 C -7,3 C
28.11.2012 17:31 2,1 C 98 % 1002 hPa 0,0 l/m 24,2 km/h (4 Bft) N22.5 10 0 min 0 min 1,8 C -8,6 C
28.11.2012 17:46 2,0 C 98 % 1002 hPa 0,0 l/m 22,5 km/h (4 Bft) N-NO22.5 20 0 min 0 min 1,7 C -8,1 C
28.11.2012 18:01 2,0 C 98 % 1002 hPa 0,0 l/m 22,1 km/h (4 Bft) N-NO67.5 20 0 min 0 min 1,7 C -7,9 C
28.11.2012 18:15 2,0 C 98 % 1002 hPa 0,0 l/m 25,3 km/h (4 Bft) N-NO67.5 20 0 min 0 min 1,7 C -9,1 C
28.11.2012 18:30 1,9 C 98 % 1002 hPa 0,0 l/m 23,5 km/h (4 Bft) N-NO22.5 15 0 min 0 min 1,6 C -8,6 C
28.11.2012 18:45 1,8 C 97 % 1002 hPa 0,0 l/m 27,6 km/h (4 Bft) N-NO67.5 25 0 min 0 min 1,4 C -10,1 C
28.11.2012 19:01 1,7 C 97 % 1002 hPa 0,0 l/m 25,5 km/h (4 Bft) N67.5 5 0 min 0 min 1,3 C -9,6 C
28.11.2012 19:16 1,6 C 97 % 1002 hPa 0,0 l/m 23,6 km/h (4 Bft) N67.5 5 0 min 0 min 1,2 C -9,0 C
28.11.2012 19:31 1,5 C 97 % 1002 hPa 0,0 l/m 28,2 km/h (4 Bft) N67.5 360 0 min 0 min 1,1 C -10,8 C
28.11.2012 19:45 1,5 C 97 % 1002 hPa 0,0 l/m 29,4 km/h (5 Bft) N22.5 10 0 min 0 min 1,1 C -11,1 C
28.11.2012 20:00 1,5 C 97 % 1002 hPa 0,0 l/m 25,4 km/h (4 Bft) N-NO45 25 0 min 0 min 1,1 C -9,8 C
28.11.2012 20:15 1,2 C 97 % 1002 hPa 0,0 l/m 24,1 km/h (4 Bft) N-NO22.5 25 0 min 0 min 0,8 C -9,8 C
28.11.2012 20:31 1,2 C 98 % 1002 hPa 0,0 l/m 20,6 km/h (4 Bft) N-NO67.5 15 0 min 0 min 0,9 C -8,3 C
28.11.2012 20:46 1,0 C 98 % 1002 hPa 0,0 l/m 25,7 km/h (4 Bft) N-NO67.5 15 0 min 0 min 0,7 C -10,6 C
28.11.2012 21:01 0,9 C 99 % 1002 hPa 0,0 l/m 22,0 km/h (4 Bft) N-NO22.5 25 0 min 0 min 0,8 C -9,3 C
28.11.2012 21:16 0,8 C 99 % 1002 hPa 0,0 l/m 24,5 km/h (4 Bft) N-NO22.5 20 0 min 0 min 0,7 C -10,5 C
28.11.2012 21:31 0,8 C 99 % 1001 hPa 0,0 l/m 21,1 km/h (4 Bft) N-NO22.5 15 0 min 0 min 0,7 C -9,1 C
28.11.2012 21:46 0,9 C 99 % 1001 hPa 0,0 l/m 31,7 km/h (5 Bft) N67.5 5 0 min 0 min 0,8 C -12,6 C
28.11.2012 22:01 0,9 C 99 % 1001 hPa 0,0 l/m 26,3 km/h (4 Bft) N45 5 0 min 0 min 0,8 C -11,0 C
28.11.2012 22:16 1,0 C 99 % 1001 hPa 0,0 l/m 25,2 km/h (4 Bft) N67.5 10 0 min 0 min 0,9 C -10,4 C
28.11.2012 22:31 1,1 C 99 % 1001 hPa 0,0 l/m 26,1 km/h (4 Bft) N-NO22.5 15 0 min 0 min 1,0 C -10,6 C
28.11.2012 22:46 1,1 C 99 % 1001 hPa 0,0 l/m 36,4 km/h (5 Bft) N-NO45 15 0 min 0 min 1,0 C -13,5 C
28.11.2012 23:01 1,2 C 99 % 1001 hPa 0,0 l/m 33,7 km/h (5 Bft) N-NO45 25 0 min 0 min 1,1 C -12,7 C
28.11.2012 23:16 1,2 C 99 % 1001 hPa 0,0 l/m 28,7 km/h (4 Bft) N-NO22.5 15 0 min 0 min 1,1 C -11,3 C
28.11.2012 23:31 1,3 C 99 % 1001 hPa 0,0 l/m 36,5 km/h (5 Bft) N-NO67.5 25 0 min 0 min 1,2 C -13,3 C
28.11.2012 23:46 1,3 C 98 % 1001 hPa 0,0 l/m 37,2 km/h (5 Bft) N-NO22.5 15 0 min 0 min 1,0 C -13,4 C
_ Min-Zeit 04:00 12:01 21:31 - 00:00 - - - - 04:00 22:46
Minimum _ -0,3 C 90 % 1001 hPa - 0,0 km/h (0 Bft) - - - - -0,7 C -13,5 C
_ Max-Zeit 11:00 09:30 00:00 17:00 23:46 - - 00:00 17:00 10:46 09:01
Maximum _ 3,9 C 99 % 1004 hPa 0,3 l/m 37,2 km/h
N-NO (5 Bft)
- - 0 min 15 min 3,5 C 1,2 C
Durchschnitt _ 1,5 C 96 % 1003 hPa #0,3 l/m 13,1 km/h (3 Bft) N-NO - #0 min. #15 min. 0,9 C -4,1 C